Time;durP1;ratioP1;P1;durP2;ratioP2;P2;SDS_P1;SDS_P2;PMS_P1;PMS_P2;Temp;Humidity;BMP_temperature;BMP_pressure;BME280_temperature;BME280_humidity;BME280_pressure;Samples;Min_cycle;Max_cycle;Signal;HPM_P1;HPM_P2
2022/04/15 00:02:09;;;;;;;2.47;1.42;;;20.70;47.40;;;;;;5112318;27;20070;-57
2022/04/15 00:04:35;;;;;;;3.40;1.48;;;20.70;47.40;;;;;;5113300;27;20098;-57
2022/04/15 00:07:02;;;;;;;2.20;1.38;;;20.70;47.40;;;;;;5113790;27;20576;-57
2022/04/15 00:09:28;;;;;;;2.55;1.52;;;20.70;47.40;;;;;;5113747;27;20062;-58
2022/04/15 00:11:55;;;;;;;2.40;1.20;;;20.70;47.30;;;;;;5111367;27;20032;-57
2022/04/15 00:14:21;;;;;;;2.38;1.50;;;20.70;47.30;;;;;;5111966;27;20066;-57
2022/04/15 00:16:47;;;;;;;2.90;1.50;;;20.70;47.40;;;;;;5115301;27;20061;-57
2022/04/15 00:19:13;;;;;;;2.17;1.15;;;20.70;47.30;;;;;;5120922;27;20319;-56
2022/04/15 00:21:39;;;;;;;3.35;1.58;;;20.70;47.20;;;;;;5112610;27;20032;-55
2022/04/15 00:24:05;;;;;;;1.95;1.27;;;20.70;47.20;;;;;;5113262;27;20627;-58
2022/04/15 00:26:31;;;;;;;3.83;1.75;;;20.70;47.60;;;;;;5113171;27;20043;-58
2022/04/15 00:28:57;;;;;;;2.22;1.23;;;20.70;48.00;;;;;;5113263;27;20043;-57
2022/04/15 00:31:23;;;;;;;2.95;1.35;;;20.70;47.20;;;;;;5112202;27;20400;-56
2022/04/15 00:33:49;;;;;;;2.55;1.40;;;20.60;47.10;;;;;;5110230;27;20039;-59
2022/04/15 00:36:15;;;;;;;2.38;1.40;;;20.60;47.00;;;;;;5114314;27;20115;-59
2022/04/15 00:38:40;;;;;;;2.40;1.40;;;20.60;47.00;;;;;;5112977;27;20042;-59
2022/04/15 00:41:06;;;;;;;1.98;1.20;;;20.70;47.10;;;;;;5113021;27;20039;-58
2022/04/15 00:43:32;;;;;;;1.77;1.30;;;20.60;47.00;;;;;;5112817;27;20399;-58
2022/04/15 00:46:05;;;;;;;2.30;1.30;;;20.60;47.00;;;;;;5111298;27;20044;-57
2022/04/15 00:48:31;;;;;;;1.92;1.25;;;20.60;46.90;;;;;;5111517;28;20420;-56
2022/04/15 00:50:56;;;;;;;1.73;1.38;;;20.60;47.00;;;;;;5113217;28;20048;-57
2022/04/15 00:53:24;;;;;;;2.50;1.30;;;20.60;47.00;;;;;;5111908;28;20051;-58
2022/04/15 00:55:57;;;;;;;3.70;1.35;;;20.60;46.90;;;;;;5113520;27;20494;-56
2022/04/15 00:58:24;;;;;;;1.48;1.05;;;20.60;46.90;;;;;;5113228;28;20411;-57
2022/04/15 01:00:53;;;;;;;2.08;1.30;;;20.60;46.80;;;;;;5108830;27;20043;-57
2022/04/15 01:03:21;;;;;;;2.25;1.67;;;20.60;46.80;;;;;;5116348;27;20493;-56
2022/04/15 01:05:49;;;;;;;1.70;1.33;;;20.60;46.80;;;;;;5117847;27;20038;-59
2022/04/15 01:08:17;;;;;;;2.20;1.33;;;20.60;46.80;;;;;;5115217;27;20037;-57
2022/04/15 01:10:46;;;;;;;2.25;1.20;;;20.60;46.70;;;;;;5116483;27;20122;-57
2022/04/15 01:13:14;;;;;;;2.20;1.20;;;20.60;46.70;;;;;;5117810;27;20734;-58
2022/04/15 01:15:40;;;;;;;1.80;1.30;;;20.60;46.70;;;;;;5115942;27;20821;-58
2022/04/15 01:18:06;;;;;;;3.42;1.40;;;20.60;46.60;;;;;;5117506;27;20433;-56
2022/04/15 01:20:32;;;;;;;2.20;1.38;;;20.60;46.60;;;;;;5117821;27;20046;-57
2022/04/15 01:23:07;;;;;;;3.40;1.73;;;20.50;46.60;;;;;;5117302;27;20043;-56
2022/04/15 01:25:32;;;;;;;2.38;1.15;;;20.50;46.40;;;;;;5118495;27;20063;-58
2022/04/15 01:27:59;;;;;;;2.30;1.20;;;20.50;46.50;;;;;;5116178;27;20043;-55
2022/04/15 01:30:25;;;;;;;2.25;1.42;;;20.50;46.40;;;;;;5117678;27;20043;-56
2022/04/15 01:32:50;;;;;;;2.72;1.40;;;20.50;46.40;;;;;;5117132;27;20051;-56
2022/04/15 01:35:19;;;;;;;1.95;1.30;;;20.50;46.40;;;;;;5116059;27;20044;-57
2022/04/15 01:37:47;;;;;;;1.98;1.17;;;20.50;46.40;;;;;;5116285;27;20047;-56
2022/04/15 01:40:15;;;;;;;2.20;1.35;;;20.50;46.30;;;;;;5116529;27;20043;-58
2022/04/15 01:42:42;;;;;;;2.83;1.30;;;20.50;46.30;;;;;;5116913;27;20175;-57
2022/04/15 01:45:08;;;;;;;2.03;1.52;;;20.50;46.30;;;;;;5114391;27;20887;-58
2022/04/15 01:47:35;;;;;;;1.80;1.38;;;20.50;46.20;;;;;;5118233;27;20775;-57
2022/04/15 01:50:02;;;;;;;3.17;1.90;;;20.50;46.30;;;;;;5116655;27;20039;-57
2022/04/15 01:52:28;;;;;;;3.88;1.40;;;20.50;46.20;;;;;;5117037;27;20549;-56
2022/04/15 01:54:53;;;;;;;2.17;1.45;;;20.50;46.20;;;;;;5116095;27;20518;-56
2022/04/15 01:57:19;;;;;;;1.75;1.30;;;20.50;46.20;;;;;;5115358;27;20039;-57
2022/04/15 01:59:45;;;;;;;1.85;1.30;;;20.50;46.20;;;;;;5117795;27;20072;-56
2022/04/15 02:02:10;;;;;;;3.03;1.50;;;20.50;46.20;;;;;;5134702;27;20111;-56
2022/04/15 02:04:36;;;;;;;2.75;1.55;;;20.50;46.20;;;;;;5133221;27;20035;-56
2022/04/15 02:07:03;;;;;;;1.48;1.30;;;20.50;46.20;;;;;;5116777;27;20118;-56
2022/04/15 02:09:28;;;;;;;1.70;1.20;;;20.50;46.20;;;;;;5114527;27;20050;-56
2022/04/15 02:11:54;;;;;;;1.73;1.30;;;20.50;46.10;;;;;;5116684;27;20043;-56
2022/04/15 02:14:20;;;;;;;2.33;1.17;;;20.50;46.00;;;;;;5134780;27;20445;-56
2022/04/15 02:16:48;;;;;;;1.88;1.20;;;20.40;46.00;;;;;;5125510;27;20040;-56
2022/04/15 02:19:13;;;;;;;2.42;1.38;;;20.40;46.00;;;;;;5122383;27;20355;-56
2022/04/15 02:21:39;;;;;;;2.85;1.58;;;20.40;46.00;;;;;;5137196;27;20045;-55
2022/04/15 02:24:05;;;;;;;2.80;1.65;;;20.40;45.90;;;;;;5114458;27;20046;-55
2022/04/15 02:26:31;;;;;;;1.50;1.30;;;20.40;45.90;;;;;;5125826;27;20042;-56
2022/04/15 02:28:57;;;;;;;2.15;1.30;;;20.40;45.90;;;;;;5137027;27;20043;-56
2022/04/15 02:31:22;;;;;;;3.33;1.45;;;20.40;45.90;;;;;;5127321;27;20043;-56
2022/04/15 02:33:48;;;;;;;2.13;1.20;;;20.40;45.90;;;;;;5134481;27;20042;-56
2022/04/15 02:36:13;;;;;;;1.77;1.23;;;20.40;45.90;;;;;;5134094;27;20046;-56
2022/04/15 02:38:39;;;;;;;2.00;1.40;;;20.40;45.90;;;;;;5134482;27;20039;-56
2022/04/15 02:41:05;;;;;;;1.75;1.20;;;20.40;45.90;;;;;;5136871;27;20529;-55
2022/04/15 02:43:31;;;;;;;2.85;1.60;;;20.40;45.90;;;;;;5137312;27;20042;-56
2022/04/15 02:45:58;;;;;;;1.98;1.35;;;20.40;45.90;;;;;;5122066;27;20369;-55
2022/04/15 02:48:24;;;;;;;1.20;1.10;;;20.40;46.60;;;;;;5116080;28;20184;-55
2022/04/15 02:50:50;;;;;;;3.35;1.30;;;20.40;45.80;;;;;;5123999;27;20051;-56
2022/04/15 02:53:16;;;;;;;2.88;1.45;;;20.40;46.60;;;;;;5135886;27;20118;-56
2022/04/15 02:55:41;;;;;;;1.85;1.20;;;20.30;45.70;;;;;;5116875;27;20043;-56
2022/04/15 02:58:07;;;;;;;1.48;1.10;;;20.40;45.80;;;;;;5123209;27;20039;-56
2022/04/15 03:00:32;;;;;;;2.83;1.30;;;20.40;45.80;;;;;;5118533;27;20036;-56
2022/04/15 03:02:58;;;;;;;1.80;1.02;;;20.40;45.80;;;;;;5131599;27;20039;-56
2022/04/15 03:05:24;;;;;;;2.10;1.30;;;20.40;45.80;;;;;;5129226;27;20066;-56
2022/04/15 03:07:49;;;;;;;1.70;1.20;;;20.40;45.80;;;;;;5113870;28;20039;-56
2022/04/15 03:10:15;;;;;;;1.42;0.93;;;20.40;45.80;;;;;;5119926;27;20122;-56
2022/04/15 03:12:41;;;;;;;1.95;1.20;;;20.40;45.80;;;;;;5134552;27;20055;-56
2022/04/15 03:15:11;;;;;;;1.75;1.15;;;20.40;45.80;;;;;;5133435;27;20046;-55
2022/04/15 03:17:37;;;;;;;2.35;1.30;;;20.30;45.70;;;;;;5136097;27;20093;-56
2022/04/15 03:20:04;;;;;;;2.58;1.15;;;20.30;45.70;;;;;;5133734;27;20466;-56
2022/04/15 03:22:34;;;;;;;2.72;1.20;;;20.30;45.70;;;;;;5123687;27;20046;-56
2022/04/15 03:25:00;;;;;;;1.67;1.05;;;20.30;45.70;;;;;;5115975;27;20035;-56
2022/04/15 03:27:25;;;;;;;1.88;1.10;;;20.30;45.70;;;;;;5115279;28;20092;-56
2022/04/15 03:29:51;;;;;;;1.40;1.00;;;20.30;45.60;;;;;;5122586;27;20120;-55
2022/04/15 03:32:17;;;;;;;1.67;1.27;;;20.30;46.40;;;;;;5117513;27;20142;-56
2022/04/15 03:34:42;;;;;;;2.65;1.17;;;20.30;45.60;;;;;;5132715;27;20470;-56
2022/04/15 03:37:08;;;;;;;1.27;1.00;;;20.30;45.60;;;;;;5136226;27;20038;-56
2022/04/15 03:39:35;;;;;;;1.05;0.90;;;20.30;45.60;;;;;;5123188;27;20500;-56
2022/04/15 03:42:01;;;;;;;1.75;1.20;;;20.30;45.60;;;;;;5115334;28;20048;-55
2022/04/15 03:44:27;;;;;;;1.98;0.90;;;20.30;45.60;;;;;;5112526;27;20089;-56
2022/04/15 03:46:52;;;;;;;1.60;1.25;;;20.30;45.60;;;;;;5123374;27;20035;-56
2022/04/15 03:49:18;;;;;;;3.22;0.90;;;20.30;45.60;;;;;;5119083;27;20043;-56
2022/04/15 03:51:43;;;;;;;1.70;1.10;;;20.30;45.60;;;;;;5109875;27;20085;-56
2022/04/15 03:54:09;;;;;;;1.77;1.17;;;20.30;45.50;;;;;;5135938;27;20032;-56
2022/04/15 03:56:36;;;;;;;2.60;1.10;;;20.30;45.60;;;;;;5132440;27;20042;-56
2022/04/15 03:59:03;;;;;;;1.70;1.00;;;20.30;45.60;;;;;;5115533;27;20383;-56
2022/04/15 04:01:29;;;;;;;2.80;1.00;;;20.20;45.50;;;;;;5123572;27;20038;-56
2022/04/15 04:03:55;;;;;;;1.88;1.00;;;20.30;45.60;;;;;;5135119;27;20035;-56
2022/04/15 04:06:20;;;;;;;1.63;0.98;;;20.20;45.50;;;;;;5129659;27;20047;-56
2022/04/15 04:08:49;;;;;;;1.00;0.85;;;20.30;45.60;;;;;;5122372;27;20380;-56
2022/04/15 04:11:16;;;;;;;1.13;1.00;;;20.30;45.60;;;;;;5113621;27;20039;-56
2022/04/15 04:13:42;;;;;;;3.17;1.17;;;20.20;45.50;;;;;;5135011;27;20133;-56
2022/04/15 04:16:07;;;;;;;1.70;1.08;;;20.20;45.50;;;;;;5132179;27;20442;-57
2022/04/15 04:18:33;;;;;;;1.58;0.93;;;20.20;45.60;;;;;;5135085;27;20041;-56
2022/04/15 04:20:58;;;;;;;1.40;1.10;;;20.20;45.60;;;;;;5115105;27;20039;-56
2022/04/15 04:23:24;;;;;;;1.65;1.00;;;20.20;45.80;;;;;;5114403;28;20501;-56
2022/04/15 04:25:49;;;;;;;2.75;1.45;;;20.20;45.80;;;;;;5111006;28;20067;-56
2022/04/15 04:28:15;;;;;;;2.42;1.30;;;20.20;45.90;;;;;;5111983;28;20039;-56
2022/04/15 04:30:41;;;;;;;1.40;1.30;;;20.20;45.90;;;;;;5114476;28;20066;-56
2022/04/15 04:33:06;;;;;;;3.13;1.42;;;20.20;45.90;;;;;;5128287;27;20039;-56
2022/04/15 04:35:32;;;;;;;2.30;1.48;;;20.20;45.90;;;;;;5120793;27;20039;-56
2022/04/15 04:37:57;;;;;;;1.73;1.20;;;20.20;46.00;;;;;;5127329;27;20046;-56
2022/04/15 04:40:23;;;;;;;1.55;1.30;;;20.20;46.10;;;;;;5127818;27;20050;-55
2022/04/15 04:42:50;;;;;;;3.28;1.58;;;20.20;46.00;;;;;;5109360;27;20043;-57
2022/04/15 04:45:16;;;;;;;1.60;1.50;;;20.20;46.10;;;;;;5120102;27;20039;-56
2022/04/15 04:47:43;;;;;;;2.08;1.42;;;20.20;46.10;;;;;;5117574;27;20111;-56
2022/04/15 04:50:10;;;;;;;1.55;1.38;;;20.20;46.10;;;;;;5112878;28;20031;-56
2022/04/15 04:52:39;;;;;;;1.98;1.30;;;20.10;46.00;;;;;;5113915;28;20047;-56
2022/04/15 04:55:06;;;;;;;1.58;1.40;;;20.10;46.10;;;;;;5112094;28;20122;-56
2022/04/15 04:57:32;;;;;;;1.80;1.40;;;20.10;46.00;;;;;;5114377;28;20047;-56
2022/04/15 04:59:58;;;;;;;1.50;1.40;;;20.10;46.10;;;;;;5130346;27;20095;-56
2022/04/15 05:02:23;;;;;;;3.58;1.50;;;20.10;46.20;;;;;;5131469;27;20067;-55
2022/04/15 05:04:49;;;;;;;2.03;1.55;;;20.10;46.20;;;;;;5134282;27;20039;-56
2022/04/15 05:07:15;;;;;;;3.15;1.30;;;20.10;46.20;;;;;;5122376;27;20036;-56
2022/04/15 05:09:43;;;;;;;2.85;1.17;;;20.10;46.20;;;;;;5113863;28;20040;-56
2022/04/15 05:12:10;;;;;;;1.90;1.23;;;20.10;46.20;;;;;;5113654;28;20083;-56
2022/04/15 05:14:36;;;;;;;1.33;1.23;;;20.10;46.10;;;;;;5111463;28;20122;-56
2022/04/15 05:17:01;;;;;;;2.65;1.48;;;20.10;46.10;;;;;;5115683;27;20085;-56
2022/04/15 05:19:27;;;;;;;3.00;1.30;;;20.10;46.20;;;;;;5134262;27;20080;-56
2022/04/15 05:21:53;;;;;;;1.88;1.33;;;20.10;46.10;;;;;;5118922;28;20040;-56
2022/04/15 05:24:19;;;;;;;4.22;1.58;;;20.10;46.10;;;;;;5116877;27;20079;-56
2022/04/15 05:26:44;;;;;;;1.95;1.13;;;20.10;46.10;;;;;;5130154;27;20042;-56
2022/04/15 05:29:10;;;;;;;1.33;1.00;;;20.10;46.10;;;;;;5115578;28;20658;-56
2022/04/15 05:31:35;;;;;;;3.63;1.20;;;20.00;46.00;;;;;;5134275;27;20043;-58
2022/04/15 05:34:01;;;;;;;1.63;1.17;;;20.00;46.00;;;;;;5131659;27;20031;-56
2022/04/15 05:36:27;;;;;;;2.92;1.45;;;20.10;46.00;;;;;;5133513;28;20027;-56
2022/04/15 05:38:53;;;;;;;2.13;1.23;;;20.00;46.00;;;;;;5131003;27;20393;-56
2022/04/15 05:41:18;;;;;;;3.95;1.20;;;20.10;46.00;;;;;;5131279;27;20043;-56
2022/04/15 05:43:44;;;;;;;2.33;1.30;;;20.00;45.90;;;;;;5134441;27;20331;-56
2022/04/15 05:46:10;;;;;;;1.42;1.23;;;20.10;46.00;;;;;;5113917;28;20036;-56
2022/04/15 05:48:36;;;;;;;2.33;1.10;;;20.10;46.00;;;;;;5124863;27;20161;-56
2022/04/15 05:51:02;;;;;;;2.05;0.85;;;20.10;45.90;;;;;;5138367;27;20140;-56
2022/04/15 05:53:28;;;;;;;1.38;1.00;;;20.10;45.90;;;;;;5135324;27;20126;-56
2022/04/15 05:55:54;;;;;;;1.40;1.20;;;20.10;45.90;;;;;;5137786;27;20191;-56
2022/04/15 05:58:19;;;;;;;1.40;1.30;;;20.10;45.90;;;;;;5119877;27;20039;-56
2022/04/15 06:00:46;;;;;;;1.60;1.10;;;20.10;45.90;;;;;;5115086;28;20032;-56
2022/04/15 06:03:11;;;;;;;1.30;1.10;;;20.10;45.90;;;;;;5116682;28;20535;-56
2022/04/15 06:05:37;;;;;;;1.48;1.00;;;20.10;45.90;;;;;;5134200;27;20031;-56
2022/04/15 06:08:03;;;;;;;1.52;1.30;;;20.10;45.80;;;;;;5126398;27;20044;-56
2022/04/15 06:10:30;;;;;;;1.17;1.08;;;20.20;45.80;;;;;;5137257;27;20083;-56
2022/04/15 06:13:02;;;;;;;1.42;1.00;;;20.20;45.90;;;;;;5120555;27;20382;-56
2022/04/15 06:15:31;;;;;;;1.33;1.20;;;20.20;45.80;;;;;;5114505;28;20044;-56
2022/04/15 06:17:58;;;;;;;1.48;1.20;;;20.20;45.80;;;;;;5114468;27;20465;-55
2022/04/15 06:20:24;;;;;;;2.13;1.00;;;20.20;45.90;;;;;;5114034;27;20050;-56
2022/04/15 06:22:50;;;;;;;3.05;1.30;;;20.20;45.90;;;;;;5123973;27;20110;-56
2022/04/15 06:25:16;;;;;;;1.80;1.00;;;20.20;46.00;;;;;;5137994;27;20359;-56
2022/04/15 06:27:42;;;;;;;2.38;1.00;;;20.20;46.10;;;;;;5132719;27;20114;-59
2022/04/15 06:30:08;;;;;;;1.33;1.00;;;20.20;46.10;;;;;;5115732;28;20211;-56
2022/04/15 06:32:37;;;;;;;1.95;1.00;;;20.20;46.10;;;;;;5116780;27;20043;-56
2022/04/15 06:35:07;;;;;;;1.80;0.90;;;20.30;46.20;;;;;;5137052;27;20039;-56
2022/04/15 06:37:32;;;;;;;3.53;1.05;;;20.30;46.20;;;;;;5131611;27;20039;-56
2022/04/15 06:39:58;;;;;;;2.65;1.00;;;20.30;46.20;;;;;;5134521;27;20049;-56
2022/04/15 06:42:25;;;;;;;1.42;0.93;;;20.30;46.20;;;;;;5137165;27;20092;-55
2022/04/15 06:44:51;;;;;;;1.92;1.20;;;20.30;46.30;;;;;;5131276;27;20125;-56
2022/04/15 06:47:17;;;;;;;1.10;0.90;;;20.30;46.30;;;;;;5136636;27;20142;-56
2022/04/15 06:49:43;;;;;;;1.10;0.88;;;20.30;46.30;;;;;;5112570;28;20066;-55
2022/04/15 06:52:09;;;;;;;2.53;0.90;;;20.30;46.30;;;;;;5116076;28;20047;-55
2022/04/15 06:54:35;;;;;;;1.45;1.20;;;20.30;46.30;;;;;;5110520;27;20039;-56
2022/04/15 06:57:01;;;;;;;1.40;1.10;;;20.30;46.40;;;;;;5134790;27;20485;-58
2022/04/15 06:59:27;;;;;;;1.27;0.90;;;20.40;47.10;;;;;;5113129;28;20135;-56
2022/04/15 07:01:55;;;;;;;0.88;0.88;;;20.40;46.50;;;;;;5126907;27;20042;-56
2022/04/15 07:04:21;;;;;;;2.45;1.13;;;20.40;46.50;;;;;;5136369;27;20042;-56
2022/04/15 07:06:47;;;;;;;0.70;0.70;;;20.40;46.50;;;;;;5133485;27;20093;-56
2022/04/15 07:09:12;;;;;;;1.48;0.90;;;20.40;46.50;;;;;;5136301;27;20370;-56
2022/04/15 07:11:38;;;;;;;3.38;0.80;;;20.40;46.40;;;;;;5136238;27;20035;-56
2022/04/15 07:14:05;;;;;;;1.77;0.88;;;20.40;46.40;;;;;;5136468;27;20047;-56
2022/04/15 07:16:31;;;;;;;2.50;1.02;;;20.40;46.50;;;;;;5136056;27;20050;-56
2022/04/15 07:18:57;;;;;;;1.25;1.00;;;20.40;46.50;;;;;;5136067;27;20039;-56
2022/04/15 07:21:23;;;;;;;1.33;1.05;;;20.40;46.50;;;;;;5136088;27;20122;-56
2022/04/15 07:23:49;;;;;;;2.10;0.80;;;20.50;46.50;;;;;;5136057;27;20102;-56
2022/04/15 07:26:14;;;;;;;1.10;0.88;;;20.50;46.50;;;;;;5135117;27;20035;-56
2022/04/15 07:28:40;;;;;;;2.03;0.93;;;20.50;46.50;;;;;;5135883;27;20035;-55
2022/04/15 07:31:06;;;;;;;0.73;0.73;;;20.50;46.50;;;;;;5135853;27;20399;-53
2022/04/15 07:33:31;;;;;;;1.33;1.05;;;20.50;46.50;;;;;;5135849;27;20466;-56
2022/04/15 07:35:57;;;;;;;1.13;0.88;;;20.50;46.50;;;;;;5135773;27;20484;-56
2022/04/15 07:38:23;;;;;;;2.15;0.70;;;20.50;46.50;;;;;;5135704;27;20043;-56
2022/04/15 07:40:48;;;;;;;2.83;1.00;;;20.50;46.60;;;;;;5135689;27;20031;-55
2022/04/15 07:43:14;;;;;;;2.20;0.93;;;20.50;46.60;;;;;;5135639;27;20466;-56
2022/04/15 07:45:40;;;;;;;2.92;1.17;;;20.50;46.60;;;;;;5136040;27;20038;-56
2022/04/15 07:48:06;;;;;;;2.70;1.17;;;20.50;46.80;;;;;;5135527;27;20045;-56
2022/04/15 07:50:31;;;;;;;1.52;1.00;;;20.50;46.90;;;;;;5135379;27;20043;-55
2022/04/15 07:52:59;;;;;;;1.38;0.80;;;20.60;47.00;;;;;;5135477;27;20031;-56
2022/04/15 07:55:25;;;;;;;1.80;0.93;;;20.60;47.00;;;;;;5135369;27;20095;-56
2022/04/15 07:57:51;;;;;;;1.85;0.70;;;20.60;47.10;;;;;;5135396;27;20050;-56
2022/04/15 08:00:17;;;;;;;1.50;0.80;;;20.60;47.30;;;;;;5136114;27;20039;-56
2022/04/15 08:02:42;;;;;;;1.52;0.80;;;20.60;47.20;;;;;;5135162;27;20469;-56
2022/04/15 08:05:08;;;;;;;2.08;0.90;;;20.60;47.30;;;;;;5135235;27;20034;-56
2022/04/15 08:07:34;;;;;;;1.33;0.90;;;20.60;47.40;;;;;;5135459;27;20039;-56
2022/04/15 08:10:00;;;;;;;1.23;0.90;;;20.70;47.40;;;;;;5134674;27;20092;-56
2022/04/15 08:12:26;;;;;;;1.00;0.80;;;20.60;47.40;;;;;;5134695;27;20047;-56
2022/04/15 08:14:52;;;;;;;1.65;0.88;;;20.70;47.60;;;;;;5135003;27;20058;-56
2022/04/15 08:17:18;;;;;;;1.15;0.80;;;20.70;47.60;;;;;;5135063;27;20328;-55
2022/04/15 08:19:44;;;;;;;2.05;0.70;;;20.70;47.50;;;;;;5135320;27;20034;-56
2022/04/15 08:22:10;;;;;;;2.60;0.80;;;20.70;47.60;;;;;;5135433;27;20092;-56
2022/04/15 08:24:42;;;;;;;1.48;0.90;;;20.70;47.60;;;;;;5135382;27;20130;-56
2022/04/15 08:27:09;;;;;;;1.35;0.73;;;20.70;47.60;;;;;;5134789;27;20127;-56
2022/04/15 08:29:39;;;;;;;3.28;0.77;;;20.70;47.60;;;;;;5135131;27;20043;-56
2022/04/15 08:32:13;;;;;;;0.57;0.50;;;20.70;47.60;;;;;;5135345;27;20408;-56
2022/04/15 08:34:40;;;;;;;2.45;0.90;;;20.70;47.60;;;;;;5134764;27;20458;-56
2022/04/15 08:37:05;;;;;;;2.75;0.73;;;20.70;47.40;;;;;;5135341;27;20055;-56
2022/04/15 08:39:31;;;;;;;3.33;0.93;;;20.70;47.40;;;;;;5134743;27;20043;-56
2022/04/15 08:41:58;;;;;;;2.55;0.90;;;20.70;47.30;;;;;;5134724;27;20087;-56
2022/04/15 08:44:25;;;;;;;4.28;1.10;;;20.70;47.40;;;;;;5134624;27;20100;-56
2022/04/15 08:46:51;;;;;;;4.07;1.08;;;20.70;47.60;;;;;;5134635;27;20090;-57
2022/04/15 08:49:19;;;;;;;2.17;0.90;;;20.70;47.70;;;;;;5135204;27;20043;-56
2022/04/15 08:51:47;;;;;;;2.28;1.45;;;20.70;47.80;;;;;;5134634;27;20047;-56
2022/04/15 08:54:13;;;;;;;3.67;1.17;;;20.70;48.00;;;;;;5134623;27;20126;-56
2022/04/15 08:56:39;;;;;;;2.40;1.02;;;20.70;48.00;;;;;;5134542;27;20071;-56
2022/04/15 08:59:05;;;;;;;2.47;1.23;;;20.70;48.00;;;;;;5135131;27;20038;-56
2022/04/15 09:01:32;;;;;;;1.55;0.98;;;20.70;48.00;;;;;;5134535;27;20047;-56
2022/04/15 09:03:59;;;;;;;1.35;1.00;;;20.70;48.00;;;;;;5134421;27;20103;-56
2022/04/15 09:06:29;;;;;;;4.30;1.20;;;20.80;48.20;;;;;;5134404;27;20039;-56
2022/04/15 09:09:11;;;;;;;3.72;1.23;;;20.80;48.30;;;;;;5134385;27;20051;-56
2022/04/15 09:11:39;;;;;;;3.38;1.20;;;20.80;48.30;;;;;;5134268;27;20485;-56
2022/04/15 09:14:12;;;;;;;1.98;1.05;;;20.80;48.30;;;;;;5111908;27;20055;-56
2022/04/15 09:16:44;;;;;;;1.35;1.20;;;20.80;48.30;;;;;;5134339;27;20039;-56
2022/04/15 09:19:11;;;;;;;3.15;1.30;;;20.80;48.20;;;;;;5130549;27;20039;-56
2022/04/15 09:21:38;;;;;;;1.85;1.10;;;20.80;48.10;;;;;;5113835;28;20039;-56
2022/04/15 09:24:04;;;;;;;1.27;1.15;;;20.80;48.00;;;;;;5118091;28;20047;-56
2022/04/15 09:26:30;;;;;;;2.65;1.20;;;20.80;47.90;;;;;;5116758;27;20042;-56
2022/04/15 09:28:55;;;;;;;1.95;1.40;;;20.80;47.90;;;;;;5117749;28;20126;-57
2022/04/15 09:31:23;;;;;;;1.88;1.27;;;20.80;47.80;;;;;;5115347;27;20039;-56
2022/04/15 09:34:07;;;;;;;3.05;1.48;;;20.80;47.80;;;;;;5118417;28;20039;-56
2022/04/15 09:36:35;;;;;;;2.17;1.30;;;20.80;47.70;;;;;;5132921;27;20070;-56
2022/04/15 09:39:14;;;;;;;1.85;1.40;;;20.80;47.70;;;;;;5117555;27;20122;-57
2022/04/15 09:41:42;;;;;;;2.30;1.67;;;20.80;48.50;;;;;;5118170;28;20044;-57
2022/04/15 09:44:12;;;;;;;2.15;1.55;;;20.80;47.70;;;;;;5117486;28;20079;-57
2022/04/15 09:46:40;;;;;;;5.30;1.60;;;20.80;47.60;;;;;;5117438;28;20036;-56
2022/04/15 09:49:08;;;;;;;2.55;1.52;;;20.80;47.50;;;;;;5114853;27;20108;-56
2022/04/15 09:51:54;;;;;;;1.80;1.45;;;20.80;47.60;;;;;;5132778;27;20035;-57
2022/04/15 09:54:25;;;;;;;1.63;1.38;;;20.80;47.50;;;;;;5117951;28;20031;-57
2022/04/15 09:56:58;;;;;;;2.90;1.60;;;20.80;47.50;;;;;;5114771;27;20078;-57
2022/04/15 09:59:29;;;;;;;1.73;1.40;;;20.80;47.50;;;;;;5114587;27;20046;-57
2022/04/15 10:02:02;;;;;;;2.67;1.38;;;20.80;47.50;;;;;;5117173;28;20186;-56
2022/04/15 10:04:28;;;;;;;4.47;1.60;;;20.80;47.40;;;;;;5117524;28;20404;-57
2022/04/15 10:06:54;;;;;;;2.95;1.70;;;20.80;47.30;;;;;;5117449;28;20061;-57
2022/04/15 10:09:20;;;;;;;2.10;1.90;;;20.80;47.20;;;;;;5126653;27;20046;-56
2022/04/15 10:11:47;;;;;;;2.47;1.90;;;20.80;47.10;;;;;;5137288;27;20039;-56
2022/04/15 10:14:15;;;;;;;2.20;1.77;;;20.80;47.00;;;;;;5136401;27;20351;-57
2022/04/15 10:16:42;;;;;;;3.22;2.00;;;20.80;47.00;;;;;;5136087;27;20047;-56
2022/04/15 10:19:08;;;;;;;4.95;2.42;;;20.70;46.90;;;;;;5128654;27;20040;-57
2022/04/15 10:21:37;;;;;;;9.05;3.20;;;20.80;47.00;;;;;;5116656;28;20058;-56
2022/04/15 10:24:04;;;;;;;7.63;3.15;;;20.70;47.10;;;;;;5117034;28;20565;-57
2022/04/15 10:26:43;;;;;;;7.00;3.15;;;20.80;47.30;;;;;;5116504;28;20043;-57
2022/04/15 10:29:10;;;;;;;8.05;3.22;;;20.80;47.50;;;;;;5117125;28;20082;-56
2022/04/15 10:31:41;;;;;;;5.57;3.13;;;20.80;47.50;;;;;;5116201;28;20149;-56
2022/04/15 10:34:12;;;;;;;;;;;20.80;47.80;;;;;;5116839;28;20575;-56
2022/04/15 10:36:38;;;;;;;15.07;5.05;;;20.80;47.90;;;;;;5116368;28;19927;-56
2022/04/15 10:39:06;;;;;;;11.68;5.15;;;20.80;48.10;;;;;;5116784;28;20478;-56
2022/04/15 10:41:44;;;;;;;13.15;5.07;;;20.80;48.30;;;;;;5115770;27;20054;-56
2022/04/15 10:44:23;;;;;;;10.18;4.68;;;20.80;48.30;;;;;;5130805;27;20071;-56
2022/04/15 10:46:48;;;;;;;14.27;5.03;;;20.80;48.30;;;;;;5114755;28;20519;-56
2022/04/15 10:49:22;;;;;;;8.77;4.57;;;20.80;48.30;;;;;;5116408;28;20126;-56
2022/04/15 10:51:51;;;;;;;14.02;4.60;;;20.80;48.40;;;;;;5116144;28;20386;-56
2022/04/15 10:54:42;;;;;;;11.55;4.50;;;20.80;48.40;;;;;;5116318;28;20051;-55
2022/04/15 10:57:16;;;;;;;12.60;4.88;;;20.80;48.50;;;;;;5116590;28;20047;-55
2022/04/15 11:02:42;;;;;;;12.95;4.13;;;20.80;48.50;;;;;;5129962;27;20077;-56
2022/04/15 11:05:11;;;;;;;9.77;4.10;;;20.80;48.60;;;;;;5136818;27;20031;-56
2022/04/15 11:07:57;;;;;;;6.63;4.05;;;20.80;48.60;;;;;;5135113;27;20082;-56
2022/04/15 11:11:02;;;;;;;7.85;3.55;;;20.80;48.70;;;;;;5136364;27;20088;-56
2022/04/15 11:13:52;;;;;;;11.20;4.47;;;20.80;48.60;;;;;;5134730;27;20490;-56
2022/04/15 11:16:19;;;;;;;7.65;3.58;;;20.80;48.50;;;;;;5136014;27;20046;-56
2022/04/15 11:18:50;;;;;;;7.28;3.22;;;20.80;48.40;;;;;;5136612;27;20047;-56
2022/04/15 11:21:21;;;;;;;6.40;3.45;;;20.80;48.40;;;;;;5136142;27;20092;-56
2022/04/15 11:23:55;;;;;;;9.95;4.10;;;20.80;48.20;;;;;;5136100;27;20043;-56
2022/04/15 11:26:25;;;;;;;7.88;3.67;;;20.80;48.10;;;;;;5135971;27;20111;-56
2022/04/15 11:28:52;;;;;;;10.30;3.20;;;20.80;48.80;;;;;;5136979;27;20135;-57
2022/04/15 11:31:23;;;;;;;7.78;2.95;;;20.80;48.10;;;;;;5135934;27;20039;-57
2022/04/15 11:33:49;;;;;;;5.40;3.13;;;20.80;48.00;;;;;;5135936;27;20130;-58
2022/04/15 11:36:17;;;;;;;8.02;3.03;;;20.80;47.90;;;;;;5136643;27;20129;-57
2022/04/15 11:38:47;;;;;;;5.80;3.00;;;20.80;47.80;;;;;;5135766;27;20046;-57
2022/04/15 11:41:20;;;;;;;5.10;2.80;;;20.80;47.80;;;;;;5135765;27;20050;-57
2022/04/15 11:44:00;;;;;;;5.47;3.00;;;20.80;47.60;;;;;;5135795;27;20051;-57
2022/04/15 11:46:36;;;;;;;5.05;2.60;;;20.80;47.40;;;;;;5133547;27;20035;-57
2022/04/15 11:49:22;;;;;;;7.22;2.58;;;20.80;47.30;;;;;;5136158;27;20035;-56
2022/04/15 11:51:55;;;;;;;6.30;2.92;;;20.80;47.40;;;;;;5136148;27;20038;-57
2022/04/15 11:54:30;;;;;;;5.63;2.40;;;20.80;47.50;;;;;;5135864;27;20375;-57
2022/04/15 11:56:58;;;;;;;6.03;2.65;;;20.80;47.50;;;;;;5136321;27;20403;-57
2022/04/15 11:59:24;;;;;;;4.65;2.55;;;20.80;47.50;;;;;;5135425;27;20053;-56
2022/04/15 12:01:52;;;;;;;4.97;2.50;;;20.80;47.40;;;;;;5116965;27;20039;-57
2022/04/15 12:04:17;;;;;;;6.22;2.38;;;20.80;47.20;;;;;;5135288;27;20135;-57
2022/04/15 12:06:43;;;;;;;3.80;2.17;;;20.80;47.10;;;;;;5135780;27;20118;-57
2022/04/15 12:09:13;;;;;;;5.72;2.90;;;20.70;47.10;;;;;;5135279;27;20415;-57
2022/04/15 12:11:39;;;;;;;4.47;2.35;;;20.70;47.00;;;;;;5135157;27;20118;-57
2022/04/15 12:14:07;;;;;;;4.07;2.53;;;20.70;46.90;;;;;;5135207;27;20440;-57
2022/04/15 12:16:35;;;;;;;3.42;2.20;;;20.70;46.80;;;;;;5134974;27;20035;-57
2022/04/15 12:19:03;;;;;;;4.20;2.08;;;20.70;46.80;;;;;;5134987;27;20081;-56
2022/04/15 12:21:29;;;;;;;3.63;2.45;;;20.60;46.80;;;;;;5133825;27;20039;-57
2022/04/15 12:23:58;;;;;;;3.97;1.95;;;20.70;46.60;;;;;;5135004;27;20043;-57
2022/04/15 12:26:24;;;;;;;3.00;2.22;;;20.70;46.40;;;;;;5135400;27;20034;-56
2022/04/15 12:31:34;;;;;;;4.13;2.78;;;20.70;45.40;;;;;;5135489;27;20054;-56
2022/04/15 12:34:01;;;;;;;5.22;2.95;;;20.70;45.70;;;;;;5134908;27;20046;-56
2022/04/15 12:36:43;;;;;;;4.47;2.50;;;20.70;44.90;;;;;;5134854;27;20039;-56
2022/04/15 12:39:09;;;;;;;4.20;2.30;;;20.60;44.40;;;;;;5135135;27;20082;-56
2022/04/15 12:41:49;;;;;;;3.55;3.10;;;20.60;44.80;;;;;;5135377;27;20472;-56
2022/04/15 12:44:32;;;;;;;6.65;3.42;;;20.60;44.00;;;;;;5135388;27;20043;-57
2022/04/15 12:47:00;;;;;;;3.67;3.10;;;20.60;43.90;;;;;;5134430;27;20467;-56
2022/04/15 12:49:29;;;;;;;7.95;3.40;;;20.50;44.10;;;;;;5134353;27;20423;-57
2022/04/15 12:52:07;;;;;;;5.47;3.00;;;20.50;48.50;;;;;;5134734;27;20099;-56
2022/04/15 12:54:33;;;;;;;5.80;3.10;;;20.50;48.90;;;;;;5134720;27;20091;-57